KOJA

Thomas P Stafford Airport

Weatherford, Oklahoma, USA
METAR KOJA 210515Z AUTO 32003KT 10SM CLR 20/16 A3012 RMK AO2
Observed Flight Rules
Aug-21 @ 05:15 UTC (9 hours ago) Visual Flight Rules
Wind Visibility Clouds
320° at 3 knots 10 miles
  • Clear skies
Temperatures Readings
Current 20°C / 68°F
Dewpoint 16°C / 61°F
Humidity 78%
Altimeter 30.12" Hg
Pressure 1020 hPa
Elevation 490
METAR KOJA 210515Z AUTO 32003KT 10SM CLR 20/16 A3012 RMK AO2
Observed Flight Rules
Aug-21 @ 05:15 UTC
(9 hours ago)
VFR
Wind Visibility
320° at 3 knots 10 miles
Clouds
  • Clear skies
Temperature Dewpoint
20°C / 68°F 16°C / 61°F
Humidity Altimeter Pressure
78% 30.12" Hg 1020 hPa